sensor_id;sensor_type;location;lat;lon;timestamp;P1;durP1;ratioP1;P2;durP2;ratioP2
21601;SDS011;10963;50.934;4.668;2024-02-26T00:00:31;2.83;;;1.50;;
21601;SDS011;10963;50.934;4.668;2024-02-26T00:02:57;4.27;;;1.50;;
21601;SDS011;10963;50.934;4.668;2024-02-26T00:05:23;2.97;;;1.40;;
21601;SDS011;10963;50.934;4.668;2024-02-26T00:07:51;2.80;;;1.47;;
21601;SDS011;10963;50.934;4.668;2024-02-26T00:10:19;2.70;;;1.50;;
21601;SDS011;10963;50.934;4.668;2024-02-26T00:12:45;2.73;;;1.57;;
21601;SDS011;10963;50.934;4.668;2024-02-26T00:15:10;2.33;;;1.40;;
21601;SDS011;10963;50.934;4.668;2024-02-26T00:17:39;2.20;;;1.27;;
21601;SDS011;10963;50.934;4.668;2024-02-26T00:20:07;1.83;;;1.20;;
21601;SDS011;10963;50.934;4.668;2024-02-26T00:22:35;2.57;;;1.33;;
21601;SDS011;10963;50.934;4.668;2024-02-26T00:25:03;1.30;;;1.17;;
21601;SDS011;10963;50.934;4.668;2024-02-26T00:27:32;2.63;;;1.50;;
21601;SDS011;10963;50.934;4.668;2024-02-26T00:29:58;4.87;;;1.53;;
21601;SDS011;10963;50.934;4.668;2024-02-26T00:32:23;2.27;;;1.53;;
21601;SDS011;10963;50.934;4.668;2024-02-26T00:34:49;2.67;;;1.47;;
21601;SDS011;10963;50.934;4.668;2024-02-26T00:37:15;3.33;;;1.80;;
21601;SDS011;10963;50.934;4.668;2024-02-26T00:39:41;2.43;;;1.47;;
21601;SDS011;10963;50.934;4.668;2024-02-26T00:42:11;1.73;;;1.47;;
21601;SDS011;10963;50.934;4.668;2024-02-26T00:44:37;1.83;;;1.20;;
21601;SDS011;10963;50.934;4.668;2024-02-26T00:47:03;1.97;;;1.57;;
21601;SDS011;10963;50.934;4.668;2024-02-26T00:49:31;3.70;;;1.50;;
21601;SDS011;10963;50.934;4.668;2024-02-26T00:52:02;2.90;;;1.60;;
21601;SDS011;10963;50.934;4.668;2024-02-26T00:54:27;5.73;;;2.13;;
21601;SDS011;10963;50.934;4.668;2024-02-26T00:56:53;2.40;;;1.50;;
21601;SDS011;10963;50.934;4.668;2024-02-26T00:59:21;5.70;;;1.67;;
21601;SDS011;10963;50.934;4.668;2024-02-26T01:01:49;2.77;;;1.50;;
21601;SDS011;10963;50.934;4.668;2024-02-26T01:04:15;2.93;;;1.30;;
21601;SDS011;10963;50.934;4.668;2024-02-26T01:06:41;2.47;;;1.70;;
21601;SDS011;10963;50.934;4.668;2024-02-26T01:09:06;1.50;;;1.30;;
21601;SDS011;10963;50.934;4.668;2024-02-26T01:11:33;1.53;;;1.43;;
21601;SDS011;10963;50.934;4.668;2024-02-26T01:13:59;2.80;;;1.53;;
21601;SDS011;10963;50.934;4.668;2024-02-26T01:16:27;3.13;;;1.57;;
21601;SDS011;10963;50.934;4.668;2024-02-26T01:18:54;4.70;;;1.30;;
21601;SDS011;10963;50.934;4.668;2024-02-26T01:21:19;1.57;;;1.47;;
21601;SDS011;10963;50.934;4.668;2024-02-26T01:23:50;3.23;;;1.63;;
21601;SDS011;10963;50.934;4.668;2024-02-26T01:26:15;2.63;;;1.63;;
21601;SDS011;10963;50.934;4.668;2024-02-26T01:28:41;2.57;;;1.50;;
21601;SDS011;10963;50.934;4.668;2024-02-26T01:31:09;3.53;;;1.57;;
21601;SDS011;10963;50.934;4.668;2024-02-26T01:33:35;3.13;;;2.07;;
21601;SDS011;10963;50.934;4.668;2024-02-26T01:36:01;2.07;;;1.50;;
21601;SDS011;10963;50.934;4.668;2024-02-26T01:38:27;2.13;;;1.30;;
21601;SDS011;10963;50.934;4.668;2024-02-26T01:40:53;2.00;;;1.50;;
21601;SDS011;10963;50.934;4.668;2024-02-26T01:43:18;2.27;;;1.40;;
21601;SDS011;10963;50.934;4.668;2024-02-26T01:45:49;2.10;;;1.27;;
21601;SDS011;10963;50.934;4.668;2024-02-26T01:48:14;3.20;;;1.50;;
21601;SDS011;10963;50.934;4.668;2024-02-26T01:50:40;1.77;;;1.23;;
21601;SDS011;10963;50.934;4.668;2024-02-26T01:53:08;2.87;;;1.70;;
21601;SDS011;10963;50.934;4.668;2024-02-26T01:55:40;1.50;;;1.40;;
21601;SDS011;10963;50.934;4.668;2024-02-26T01:58:06;2.57;;;1.20;;
21601;SDS011;10963;50.934;4.668;2024-02-26T02:00:34;3.27;;;1.30;;
21601;SDS011;10963;50.934;4.668;2024-02-26T02:03:01;1.60;;;1.50;;
21601;SDS011;10963;50.934;4.668;2024-02-26T02:05:28;1.63;;;1.10;;
21601;SDS011;10963;50.934;4.668;2024-02-26T02:07:55;1.77;;;1.40;;
21601;SDS011;10963;50.934;4.668;2024-02-26T02:10:20;3.53;;;1.47;;
21601;SDS011;10963;50.934;4.668;2024-02-26T02:12:48;1.53;;;1.43;;
21601;SDS011;10963;50.934;4.668;2024-02-26T02:15:14;3.73;;;1.60;;
21601;SDS011;10963;50.934;4.668;2024-02-26T02:17:40;3.93;;;1.43;;
21601;SDS011;10963;50.934;4.668;2024-02-26T02:20:09;3.57;;;1.03;;
21601;SDS011;10963;50.934;4.668;2024-02-26T02:22:40;2.50;;;1.33;;
21601;SDS011;10963;50.934;4.668;2024-02-26T02:25:06;3.57;;;1.60;;
21601;SDS011;10963;50.934;4.668;2024-02-26T02:27:34;4.07;;;1.63;;
21601;SDS011;10963;50.934;4.668;2024-02-26T02:30:00;3.70;;;1.50;;
21601;SDS011;10963;50.934;4.668;2024-02-26T02:32:27;3.43;;;1.57;;
21601;SDS011;10963;50.934;4.668;2024-02-26T02:34:54;3.73;;;1.50;;
21601;SDS011;10963;50.934;4.668;2024-02-26T02:37:22;2.50;;;1.60;;
21601;SDS011;10963;50.934;4.668;2024-02-26T02:39:47;2.30;;;1.50;;
21601;SDS011;10963;50.934;4.668;2024-02-26T02:42:16;2.60;;;1.50;;
21601;SDS011;10963;50.934;4.668;2024-02-26T02:44:42;2.70;;;2.07;;
21601;SDS011;10963;50.934;4.668;2024-02-26T02:47:12;2.67;;;1.53;;
21601;SDS011;10963;50.934;4.668;2024-02-26T02:49:37;2.20;;;2.00;;
21601;SDS011;10963;50.934;4.668;2024-02-26T02:52:03;2.70;;;2.00;;
21601;SDS011;10963;50.934;4.668;2024-02-26T02:54:29;2.03;;;1.60;;
21601;SDS011;10963;50.934;4.668;2024-02-26T02:56:55;2.33;;;1.70;;
21601;SDS011;10963;50.934;4.668;2024-02-26T02:59:21;2.93;;;2.63;;
21601;SDS011;10963;50.934;4.668;2024-02-26T03:01:46;2.53;;;1.90;;
21601;SDS011;10963;50.934;4.668;2024-02-26T03:04:12;3.83;;;1.97;;
21601;SDS011;10963;50.934;4.668;2024-02-26T03:06:38;6.53;;;1.80;;
21601;SDS011;10963;50.934;4.668;2024-02-26T03:09:04;4.40;;;1.70;;
21601;SDS011;10963;50.934;4.668;2024-02-26T03:11:29;1.77;;;1.63;;
21601;SDS011;10963;50.934;4.668;2024-02-26T03:13:55;3.33;;;1.37;;
21601;SDS011;10963;50.934;4.668;2024-02-26T03:16:21;1.93;;;1.60;;
21601;SDS011;10963;50.934;4.668;2024-02-26T03:18:49;3.93;;;1.40;;
21601;SDS011;10963;50.934;4.668;2024-02-26T03:21:14;3.43;;;1.67;;
21601;SDS011;10963;50.934;4.668;2024-02-26T03:23:42;1.80;;;1.50;;
21601;SDS011;10963;50.934;4.668;2024-02-26T03:26:08;2.53;;;2.00;;
21601;SDS011;10963;50.934;4.668;2024-02-26T03:28:41;1.47;;;1.30;;
21601;SDS011;10963;50.934;4.668;2024-02-26T03:31:07;2.50;;;1.67;;
21601;SDS011;10963;50.934;4.668;2024-02-26T03:33:35;3.57;;;2.17;;
21601;SDS011;10963;50.934;4.668;2024-02-26T03:36:03;3.53;;;2.13;;
21601;SDS011;10963;50.934;4.668;2024-02-26T03:38:31;5.50;;;2.47;;
21601;SDS011;10963;50.934;4.668;2024-02-26T03:41:00;3.87;;;2.43;;
21601;SDS011;10963;50.934;4.668;2024-02-26T03:43:30;6.13;;;3.00;;
21601;SDS011;10963;50.934;4.668;2024-02-26T03:45:56;4.20;;;3.13;;
21601;SDS011;10963;50.934;4.668;2024-02-26T03:48:22;4.93;;;3.10;;
21601;SDS011;10963;50.934;4.668;2024-02-26T03:50:53;4.70;;;3.57;;
21601;SDS011;10963;50.934;4.668;2024-02-26T03:53:19;5.10;;;3.90;;
21601;SDS011;10963;50.934;4.668;2024-02-26T03:55:47;7.90;;;4.20;;
21601;SDS011;10963;50.934;4.668;2024-02-26T03:58:15;7.30;;;4.33;;
21601;SDS011;10963;50.934;4.668;2024-02-26T04:00:42;9.10;;;4.33;;
21601;SDS011;10963;50.934;4.668;2024-02-26T04:03:08;8.83;;;3.93;;
21601;SDS011;10963;50.934;4.668;2024-02-26T04:05:33;4.40;;;3.80;;
21601;SDS011;10963;50.934;4.668;2024-02-26T04:07:59;5.97;;;4.20;;
21601;SDS011;10963;50.934;4.668;2024-02-26T04:10:25;5.10;;;4.17;;
21601;SDS011;10963;50.934;4.668;2024-02-26T04:12:50;5.97;;;3.83;;
21601;SDS011;10963;50.934;4.668;2024-02-26T04:15:16;5.53;;;3.60;;
21601;SDS011;10963;50.934;4.668;2024-02-26T04:17:42;6.20;;;3.93;;
21601;SDS011;10963;50.934;4.668;2024-02-26T04:20:14;4.80;;;4.03;;
21601;SDS011;10963;50.934;4.668;2024-02-26T04:22:42;5.63;;;3.90;;
21601;SDS011;10963;50.934;4.668;2024-02-26T04:25:08;6.60;;;4.47;;
21601;SDS011;10963;50.934;4.668;2024-02-26T04:27:36;8.13;;;4.57;;
21601;SDS011;10963;50.934;4.668;2024-02-26T04:30:02;7.57;;;4.43;;
21601;SDS011;10963;50.934;4.668;2024-02-26T04:32:29;8.57;;;4.83;;
21601;SDS011;10963;50.934;4.668;2024-02-26T04:34:54;13.10;;;5.93;;
21601;SDS011;10963;50.934;4.668;2024-02-26T04:37:20;8.87;;;4.77;;
21601;SDS011;10963;50.934;4.668;2024-02-26T04:39:46;9.83;;;4.70;;
21601;SDS011;10963;50.934;4.668;2024-02-26T04:42:12;7.70;;;5.10;;
21601;SDS011;10963;50.934;4.668;2024-02-26T04:44:40;7.80;;;5.20;;
21601;SDS011;10963;50.934;4.668;2024-02-26T04:47:08;8.13;;;5.10;;
21601;SDS011;10963;50.934;4.668;2024-02-26T04:49:34;5.40;;;3.83;;
21601;SDS011;10963;50.934;4.668;2024-02-26T04:51:59;8.97;;;5.10;;
21601;SDS011;10963;50.934;4.668;2024-02-26T04:54:25;7.33;;;5.47;;
21601;SDS011;10963;50.934;4.668;2024-02-26T04:56:51;7.20;;;5.27;;
21601;SDS011;10963;50.934;4.668;2024-02-26T04:59:16;9.23;;;6.03;;
21601;SDS011;10963;50.934;4.668;2024-02-26T05:01:42;10.30;;;6.07;;
21601;SDS011;10963;50.934;4.668;2024-02-26T05:04:10;8.73;;;6.17;;
21601;SDS011;10963;50.934;4.668;2024-02-26T05:06:36;10.47;;;6.93;;
21601;SDS011;10963;50.934;4.668;2024-02-26T05:09:05;13.97;;;8.17;;
21601;SDS011;10963;50.934;4.668;2024-02-26T05:11:33;12.10;;;8.23;;
21601;SDS011;10963;50.934;4.668;2024-02-26T05:13:59;14.70;;;9.27;;
21601;SDS011;10963;50.934;4.668;2024-02-26T05:16:25;16.17;;;10.63;;
21601;SDS011;10963;50.934;4.668;2024-02-26T05:18:52;15.70;;;10.93;;
21601;SDS011;10963;50.934;4.668;2024-02-26T05:21:18;17.07;;;10.33;;
21601;SDS011;10963;50.934;4.668;2024-02-26T05:23:44;16.53;;;10.50;;
21601;SDS011;10963;50.934;4.668;2024-02-26T05:26:10;17.50;;;10.97;;
21601;SDS011;10963;50.934;4.668;2024-02-26T05:28:38;16.87;;;10.73;;
21601;SDS011;10963;50.934;4.668;2024-02-26T05:31:06;15.83;;;10.63;;
21601;SDS011;10963;50.934;4.668;2024-02-26T05:33:35;15.47;;;9.20;;
21601;SDS011;10963;50.934;4.668;2024-02-26T05:36:00;14.87;;;8.90;;
21601;SDS011;10963;50.934;4.668;2024-02-26T05:38:29;15.40;;;9.93;;
21601;SDS011;10963;50.934;4.668;2024-02-26T05:40:54;15.90;;;10.87;;
21601;SDS011;10963;50.934;4.668;2024-02-26T05:43:22;16.97;;;10.53;;
21601;SDS011;10963;50.934;4.668;2024-02-26T05:45:48;17.27;;;10.50;;
21601;SDS011;10963;50.934;4.668;2024-02-26T05:48:14;16.10;;;10.20;;
21601;SDS011;10963;50.934;4.668;2024-02-26T05:50:44;14.80;;;10.00;;
21601;SDS011;10963;50.934;4.668;2024-02-26T05:53:10;16.43;;;11.03;;
21601;SDS011;10963;50.934;4.668;2024-02-26T05:55:38;18.17;;;11.13;;
21601;SDS011;10963;50.934;4.668;2024-02-26T05:58:06;16.80;;;8.83;;
21601;SDS011;10963;50.934;4.668;2024-02-26T06:00:32;16.73;;;9.97;;
21601;SDS011;10963;50.934;4.668;2024-02-26T06:03:00;17.37;;;10.07;;
21601;SDS011;10963;50.934;4.668;2024-02-26T06:05:27;15.43;;;10.13;;
21601;SDS011;10963;50.934;4.668;2024-02-26T06:07:53;17.17;;;11.33;;
21601;SDS011;10963;50.934;4.668;2024-02-26T06:10:18;15.20;;;9.27;;
21601;SDS011;10963;50.934;4.668;2024-02-26T06:12:48;16.33;;;10.53;;
21601;SDS011;10963;50.934;4.668;2024-02-26T06:15:14;20.47;;;10.50;;
21601;SDS011;10963;50.934;4.668;2024-02-26T06:17:40;17.27;;;10.03;;
21601;SDS011;10963;50.934;4.668;2024-02-26T06:20:11;18.30;;;11.20;;
21601;SDS011;10963;50.934;4.668;2024-02-26T06:22:39;16.83;;;10.87;;
21601;SDS011;10963;50.934;4.668;2024-02-26T06:25:06;16.63;;;11.53;;
21601;SDS011;10963;50.934;4.668;2024-02-26T06:27:32;15.97;;;8.83;;
21601;SDS011;10963;50.934;4.668;2024-02-26T06:29:58;17.30;;;9.77;;
21601;SDS011;10963;50.934;4.668;2024-02-26T06:32:26;16.53;;;11.83;;
21601;SDS011;10963;50.934;4.668;2024-02-26T06:34:54;14.67;;;11.00;;
21601;SDS011;10963;50.934;4.668;2024-02-26T06:37:20;17.40;;;11.53;;
21601;SDS011;10963;50.934;4.668;2024-02-26T06:39:45;17.83;;;12.33;;
21601;SDS011;10963;50.934;4.668;2024-02-26T06:42:11;18.60;;;12.30;;
21601;SDS011;10963;50.934;4.668;2024-02-26T06:44:40;17.43;;;11.00;;
21601;SDS011;10963;50.934;4.668;2024-02-26T06:47:05;17.80;;;12.10;;
21601;SDS011;10963;50.934;4.668;2024-02-26T06:49:33;18.10;;;11.57;;
21601;SDS011;10963;50.934;4.668;2024-02-26T06:52:04;15.63;;;11.40;;
21601;SDS011;10963;50.934;4.668;2024-02-26T06:54:33;19.33;;;12.30;;
21601;SDS011;10963;50.934;4.668;2024-02-26T06:56:59;14.60;;;10.30;;
21601;SDS011;10963;50.934;4.668;2024-02-26T06:59:25;19.23;;;12.33;;
21601;SDS011;10963;50.934;4.668;2024-02-26T07:01:53;21.80;;;11.57;;
21601;SDS011;10963;50.934;4.668;2024-02-26T07:04:19;19.90;;;11.70;;
21601;SDS011;10963;50.934;4.668;2024-02-26T07:06:45;17.30;;;12.03;;
21601;SDS011;10963;50.934;4.668;2024-02-26T07:09:12;16.60;;;11.27;;
21601;SDS011;10963;50.934;4.668;2024-02-26T07:11:40;20.20;;;12.33;;
21601;SDS011;10963;50.934;4.668;2024-02-26T07:14:09;22.80;;;12.10;;
21601;SDS011;10963;50.934;4.668;2024-02-26T07:16:37;15.87;;;11.67;;
21601;SDS011;10963;50.934;4.668;2024-02-26T07:19:03;17.57;;;11.50;;
21601;SDS011;10963;50.934;4.668;2024-02-26T07:21:29;16.73;;;11.23;;
21601;SDS011;10963;50.934;4.668;2024-02-26T07:23:57;19.03;;;12.17;;
21601;SDS011;10963;50.934;4.668;2024-02-26T07:26:23;18.60;;;12.93;;
21601;SDS011;10963;50.934;4.668;2024-02-26T07:28:54;19.90;;;12.27;;
21601;SDS011;10963;50.934;4.668;2024-02-26T07:31:21;19.97;;;11.43;;
21601;SDS011;10963;50.934;4.668;2024-02-26T07:33:49;18.07;;;12.23;;
21601;SDS011;10963;50.934;4.668;2024-02-26T07:36:17;17.20;;;10.80;;
21601;SDS011;10963;50.934;4.668;2024-02-26T07:38:43;19.30;;;11.83;;
21601;SDS011;10963;50.934;4.668;2024-02-26T07:41:09;17.83;;;11.30;;
21601;SDS011;10963;50.934;4.668;2024-02-26T07:43:38;17.33;;;10.97;;
21601;SDS011;10963;50.934;4.668;2024-02-26T07:46:06;19.17;;;11.83;;
21601;SDS011;10963;50.934;4.668;2024-02-26T07:48:39;17.20;;;10.77;;
21601;SDS011;10963;50.934;4.668;2024-02-26T07:51:07;21.20;;;11.97;;
21601;SDS011;10963;50.934;4.668;2024-02-26T07:53:35;15.80;;;10.83;;
21601;SDS011;10963;50.934;4.668;2024-02-26T07:56:01;16.23;;;10.33;;
21601;SDS011;10963;50.934;4.668;2024-02-26T07:58:26;17.67;;;11.50;;
21601;SDS011;10963;50.934;4.668;2024-02-26T08:00:52;16.27;;;11.07;;
21601;SDS011;10963;50.934;4.668;2024-02-26T08:03:18;16.53;;;11.00;;
21601;SDS011;10963;50.934;4.668;2024-02-26T08:05:46;20.90;;;11.83;;
21601;SDS011;10963;50.934;4.668;2024-02-26T08:08:12;17.30;;;11.10;;
21601;SDS011;10963;50.934;4.668;2024-02-26T08:10:40;15.23;;;10.33;;
21601;SDS011;10963;50.934;4.668;2024-02-26T08:13:09;14.73;;;10.33;;
21601;SDS011;10963;50.934;4.668;2024-02-26T08:15:37;18.13;;;11.07;;
21601;SDS011;10963;50.934;4.668;2024-02-26T08:18:03;15.97;;;10.93;;
21601;SDS011;10963;50.934;4.668;2024-02-26T08:20:29;16.77;;;9.53;;
21601;SDS011;10963;50.934;4.668;2024-02-26T08:22:57;17.20;;;11.57;;
21601;SDS011;10963;50.934;4.668;2024-02-26T08:25:26;17.23;;;11.10;;
21601;SDS011;10963;50.934;4.668;2024-02-26T08:27:52;16.33;;;10.50;;
21601;SDS011;10963;50.934;4.668;2024-02-26T08:30:18;17.67;;;11.57;;
21601;SDS011;10963;50.934;4.668;2024-02-26T08:32:47;17.93;;;11.47;;
21601;SDS011;10963;50.934;4.668;2024-02-26T08:35:12;15.23;;;10.53;;
21601;SDS011;10963;50.934;4.668;2024-02-26T08:37:38;15.57;;;10.30;;
21601;SDS011;10963;50.934;4.668;2024-02-26T08:40:05;18.83;;;10.97;;
21601;SDS011;10963;50.934;4.668;2024-02-26T08:42:31;15.80;;;10.03;;
21601;SDS011;10963;50.934;4.668;2024-02-26T08:44:57;16.77;;;11.17;;
21601;SDS011;10963;50.934;4.668;2024-02-26T08:47:25;19.43;;;11.10;;
21601;SDS011;10963;50.934;4.668;2024-02-26T08:49:53;18.67;;;11.30;;
21601;SDS011;10963;50.934;4.668;2024-02-26T08:52:19;18.03;;;10.50;;
21601;SDS011;10963;50.934;4.668;2024-02-26T08:54:46;15.17;;;10.30;;
21601;SDS011;10963;50.934;4.668;2024-02-26T08:57:12;16.33;;;11.07;;
21601;SDS011;10963;50.934;4.668;2024-02-26T08:59:38;18.63;;;11.90;;
21601;SDS011;10963;50.934;4.668;2024-02-26T09:02:09;16.30;;;9.90;;
21601;SDS011;10963;50.934;4.668;2024-02-26T09:04:37;16.23;;;10.03;;
21601;SDS011;10963;50.934;4.668;2024-02-26T09:07:02;16.93;;;10.70;;
21601;SDS011;10963;50.934;4.668;2024-02-26T09:09:31;16.80;;;10.90;;
21601;SDS011;10963;50.934;4.668;2024-02-26T09:11:57;18.73;;;11.23;;
21601;SDS011;10963;50.934;4.668;2024-02-26T09:14:23;17.97;;;11.07;;
21601;SDS011;10963;50.934;4.668;2024-02-26T09:16:53;19.97;;;10.70;;
21601;SDS011;10963;50.934;4.668;2024-02-26T09:19:19;18.87;;;11.40;;
21601;SDS011;10963;50.934;4.668;2024-02-26T09:21:45;16.33;;;10.93;;
21601;SDS011;10963;50.934;4.668;2024-02-26T09:24:11;16.43;;;11.23;;
21601;SDS011;10963;50.934;4.668;2024-02-26T09:26:37;19.90;;;11.67;;
21601;SDS011;10963;50.934;4.668;2024-02-26T09:29:03;15.30;;;10.03;;
21601;SDS011;10963;50.934;4.668;2024-02-26T09:31:29;18.07;;;11.30;;
21601;SDS011;10963;50.934;4.668;2024-02-26T09:33:55;18.23;;;10.80;;
21601;SDS011;10963;50.934;4.668;2024-02-26T09:36:21;16.57;;;9.70;;
21601;SDS011;10963;50.934;4.668;2024-02-26T09:38:47;17.87;;;10.97;;
21601;SDS011;10963;50.934;4.668;2024-02-26T09:41:16;17.00;;;10.50;;
21601;SDS011;10963;50.934;4.668;2024-02-26T09:43:45;16.80;;;10.47;;
21601;SDS011;10963;50.934;4.668;2024-02-26T09:46:17;16.20;;;10.93;;
21601;SDS011;10963;50.934;4.668;2024-02-26T09:48:45;16.17;;;10.27;;
21601;SDS011;10963;50.934;4.668;2024-02-26T09:51:12;17.73;;;10.07;;
21601;SDS011;10963;50.934;4.668;2024-02-26T09:53:40;15.73;;;9.93;;
21601;SDS011;10963;50.934;4.668;2024-02-26T09:56:11;16.53;;;10.27;;
21601;SDS011;10963;50.934;4.668;2024-02-26T09:58:38;15.17;;;9.93;;
21601;SDS011;10963;50.934;4.668;2024-02-26T10:01:07;12.90;;;8.80;;
21601;SDS011;10963;50.934;4.668;2024-02-26T10:03:41;17.53;;;10.73;;
21601;SDS011;10963;50.934;4.668;2024-02-26T10:06:09;14.67;;;8.63;;
21601;SDS011;10963;50.934;4.668;2024-02-26T10:08:36;14.33;;;9.00;;
21601;SDS011;10963;50.934;4.668;2024-02-26T10:11:12;15.63;;;8.70;;
21601;SDS011;10963;50.934;4.668;2024-02-26T10:13:41;10.70;;;7.57;;
21601;SDS011;10963;50.934;4.668;2024-02-26T10:16:06;15.10;;;8.70;;
21601;SDS011;10963;50.934;4.668;2024-02-26T10:18:46;16.23;;;9.47;;
21601;SDS011;10963;50.934;4.668;2024-02-26T10:21:12;13.27;;;8.93;;
21601;SDS011;10963;50.934;4.668;2024-02-26T10:23:38;13.07;;;9.07;;
21601;SDS011;10963;50.934;4.668;2024-02-26T10:26:04;13.27;;;8.00;;
21601;SDS011;10963;50.934;4.668;2024-02-26T10:28:36;11.17;;;7.67;;
21601;SDS011;10963;50.934;4.668;2024-02-26T10:31:01;14.53;;;8.83;;
21601;SDS011;10963;50.934;4.668;2024-02-26T10:33:28;13.40;;;8.47;;
21601;SDS011;10963;50.934;4.668;2024-02-26T10:35:53;14.17;;;8.73;;
21601;SDS011;10963;50.934;4.668;2024-02-26T10:38:19;12.23;;;8.43;;
21601;SDS011;10963;50.934;4.668;2024-02-26T10:40:46;15.30;;;8.73;;
21601;SDS011;10963;50.934;4.668;2024-02-26T10:43:13;11.63;;;7.43;;
21601;SDS011;10963;50.934;4.668;2024-02-26T10:45:41;11.27;;;8.07;;
21601;SDS011;10963;50.934;4.668;2024-02-26T10:48:12;11.73;;;7.20;;
21601;SDS011;10963;50.934;4.668;2024-02-26T10:50:42;12.43;;;8.47;;
21601;SDS011;10963;50.934;4.668;2024-02-26T10:53:17;11.40;;;8.33;;
21601;SDS011;10963;50.934;4.668;2024-02-26T10:55:50;12.07;;;8.30;;
21601;SDS011;10963;50.934;4.668;2024-02-26T10:58:21;12.07;;;7.90;;
21601;SDS011;10963;50.934;4.668;2024-02-26T11:00:49;12.20;;;7.83;;
21601;SDS011;10963;50.934;4.668;2024-02-26T11:03:16;12.73;;;7.07;;
21601;SDS011;10963;50.934;4.668;2024-02-26T11:05:48;11.50;;;7.30;;
21601;SDS011;10963;50.934;4.668;2024-02-26T11:08:21;11.97;;;7.50;;
21601;SDS011;10963;50.934;4.668;2024-02-26T11:10:52;12.90;;;7.67;;
21601;SDS011;10963;50.934;4.668;2024-02-26T11:13:19;10.23;;;6.63;;
21601;SDS011;10963;50.934;4.668;2024-02-26T11:15:46;8.63;;;6.70;;
21601;SDS011;10963;50.934;4.668;2024-02-26T11:18:16;11.83;;;7.23;;
21601;SDS011;10963;50.934;4.668;2024-02-26T11:20:43;10.77;;;6.97;;
21601;SDS011;10963;50.934;4.668;2024-02-26T11:23:11;9.47;;;6.83;;
21601;SDS011;10963;50.934;4.668;2024-02-26T11:25:40;11.47;;;6.63;;
21601;SDS011;10963;50.934;4.668;2024-02-26T11:28:10;11.00;;;7.50;;
21601;SDS011;10963;50.934;4.668;2024-02-26T11:30:44;7.93;;;5.33;;
21601;SDS011;10963;50.934;4.668;2024-02-26T11:33:12;8.83;;;6.33;;
21601;SDS011;10963;50.934;4.668;2024-02-26T11:35:42;11.20;;;7.33;;
21601;SDS011;10963;50.934;4.668;2024-02-26T11:38:21;11.10;;;5.70;;
21601;SDS011;10963;50.934;4.668;2024-02-26T11:40:49;9.03;;;6.70;;
21601;SDS011;10963;50.934;4.668;2024-02-26T11:43:16;9.13;;;6.00;;
21601;SDS011;10963;50.934;4.668;2024-02-26T11:45:47;10.33;;;6.37;;
21601;SDS011;10963;50.934;4.668;2024-02-26T11:48:23;9.83;;;6.40;;
21601;SDS011;10963;50.934;4.668;2024-02-26T11:50:54;9.57;;;6.63;;
21601;SDS011;10963;50.934;4.668;2024-02-26T11:53:31;9.20;;;6.40;;
21601;SDS011;10963;50.934;4.668;2024-02-26T11:58:44;9.83;;;7.00;;
21601;SDS011;10963;50.934;4.668;2024-02-26T12:04:05;9.40;;;6.83;;
21601;SDS011;10963;50.934;4.668;2024-02-26T12:06:45;9.60;;;7.40;;
21601;SDS011;10963;50.934;4.668;2024-02-26T12:09:10;8.53;;;5.60;;
21601;SDS011;10963;50.934;4.668;2024-02-26T12:11:55;10.10;;;6.80;;
21601;SDS011;10963;50.934;4.668;2024-02-26T12:14:24;10.50;;;7.40;;
21601;SDS011;10963;50.934;4.668;2024-02-26T12:16:51;12.03;;;7.00;;
21601;SDS011;10963;50.934;4.668;2024-02-26T12:19:18;8.40;;;6.67;;
21601;SDS011;10963;50.934;4.668;2024-02-26T12:21:44;8.67;;;6.67;;
21601;SDS011;10963;50.934;4.668;2024-02-26T12:24:16;8.67;;;6.47;;
21601;SDS011;10963;50.934;4.668;2024-02-26T12:26:47;9.70;;;7.17;;
21601;SDS011;10963;50.934;4.668;2024-02-26T12:29:13;8.03;;;6.30;;
21601;SDS011;10963;50.934;4.668;2024-02-26T12:31:39;12.10;;;7.17;;
21601;SDS011;10963;50.934;4.668;2024-02-26T12:34:06;12.03;;;7.23;;
21601;SDS011;10963;50.934;4.668;2024-02-26T12:36:35;9.10;;;6.67;;
21601;SDS011;10963;50.934;4.668;2024-02-26T12:39:06;10.77;;;7.30;;
21601;SDS011;10963;50.934;4.668;2024-02-26T12:41:33;10.70;;;7.00;;
21601;SDS011;10963;50.934;4.668;2024-02-26T12:44:01;10.10;;;7.23;;
21601;SDS011;10963;50.934;4.668;2024-02-26T12:46:27;8.23;;;6.67;;
21601;SDS011;10963;50.934;4.668;2024-02-26T12:48:56;8.53;;;6.43;;
21601;SDS011;10963;50.934;4.668;2024-02-26T12:51:26;8.60;;;6.97;;
21601;SDS011;10963;50.934;4.668;2024-02-26T12:53:54;10.43;;;7.07;;
21601;SDS011;10963;50.934;4.668;2024-02-26T12:56:24;11.93;;;7.80;;
21601;SDS011;10963;50.934;4.668;2024-02-26T12:58:54;12.53;;;8.00;;
21601;SDS011;10963;50.934;4.668;2024-02-26T13:01:23;10.40;;;7.07;;
21601;SDS011;10963;50.934;4.668;2024-02-26T13:03:55;10.30;;;7.33;;
21601;SDS011;10963;50.934;4.668;2024-02-26T13:06:25;11.40;;;8.57;;
21601;SDS011;10963;50.934;4.668;2024-02-26T13:08:55;10.57;;;7.77;;
21601;SDS011;10963;50.934;4.668;2024-02-26T13:11:26;10.70;;;8.07;;
21601;SDS011;10963;50.934;4.668;2024-02-26T13:13:53;12.43;;;8.50;;
21601;SDS011;10963;50.934;4.668;2024-02-26T13:16:19;12.97;;;7.97;;
21601;SDS011;10963;50.934;4.668;2024-02-26T13:18:52;10.93;;;7.80;;
21601;SDS011;10963;50.934;4.668;2024-02-26T13:21:18;12.53;;;9.17;;
21601;SDS011;10963;50.934;4.668;2024-02-26T13:23:48;12.67;;;8.43;;
21601;SDS011;10963;50.934;4.668;2024-02-26T13:26:15;13.83;;;8.83;;
21601;SDS011;10963;50.934;4.668;2024-02-26T13:28:41;16.33;;;9.27;;
21601;SDS011;10963;50.934;4.668;2024-02-26T13:31:07;14.83;;;9.50;;
21601;SDS011;10963;50.934;4.668;2024-02-26T13:33:33;18.30;;;10.53;;
21601;SDS011;10963;50.934;4.668;2024-02-26T13:35:59;14.80;;;9.43;;
21601;SDS011;10963;50.934;4.668;2024-02-26T13:38:26;19.77;;;9.90;;
21601;SDS011;10963;50.934;4.668;2024-02-26T13:40:53;17.27;;;10.60;;
21601;SDS011;10963;50.934;4.668;2024-02-26T13:43:19;20.03;;;11.23;;
21601;SDS011;10963;50.934;4.668;2024-02-26T13:45:47;22.53;;;11.33;;
21601;SDS011;10963;50.934;4.668;2024-02-26T13:48:14;16.97;;;11.13;;
21601;SDS011;10963;50.934;4.668;2024-02-26T13:50:40;19.63;;;11.60;;
21601;SDS011;10963;50.934;4.668;2024-02-26T13:53:08;19.03;;;11.23;;
21601;SDS011;10963;50.934;4.668;2024-02-26T13:55:34;16.50;;;11.10;;
21601;SDS011;10963;50.934;4.668;2024-02-26T13:58:00;19.23;;;11.40;;
21601;SDS011;10963;50.934;4.668;2024-02-26T14:00:27;16.23;;;11.20;;
21601;SDS011;10963;50.934;4.668;2024-02-26T14:02:57;18.83;;;10.67;;
21601;SDS011;10963;50.934;4.668;2024-02-26T14:05:25;19.30;;;11.20;;
21601;SDS011;10963;50.934;4.668;2024-02-26T14:07:52;19.60;;;11.93;;
21601;SDS011;10963;50.934;4.668;2024-02-26T14:10:18;17.73;;;10.60;;
21601;SDS011;10963;50.934;4.668;2024-02-26T14:12:46;18.77;;;11.93;;
21601;SDS011;10963;50.934;4.668;2024-02-26T14:15:11;17.67;;;10.83;;
21601;SDS011;10963;50.934;4.668;2024-02-26T14:17:39;16.80;;;10.13;;
21601;SDS011;10963;50.934;4.668;2024-02-26T14:20:08;19.47;;;12.10;;
21601;SDS011;10963;50.934;4.668;2024-02-26T14:22:34;19.70;;;11.77;;
21601;SDS011;10963;50.934;4.668;2024-02-26T14:25:00;18.73;;;11.90;;
21601;SDS011;10963;50.934;4.668;2024-02-26T14:27:28;24.10;;;13.50;;
21601;SDS011;10963;50.934;4.668;2024-02-26T14:29:53;17.10;;;10.30;;
21601;SDS011;10963;50.934;4.668;2024-02-26T14:32:20;18.57;;;11.60;;
21601;SDS011;10963;50.934;4.668;2024-02-26T14:34:46;21.30;;;11.90;;
21601;SDS011;10963;50.934;4.668;2024-02-26T14:37:14;18.70;;;11.33;;
21601;SDS011;10963;50.934;4.668;2024-02-26T14:39:42;16.77;;;10.00;;
21601;SDS011;10963;50.934;4.668;2024-02-26T14:42:08;17.53;;;9.87;;